Time;durP1;ratioP1;P1;durP2;ratioP2;P2;SDS_P1;SDS_P2;PMS_P1;PMS_P2;Temp;Humidity;BMP_temperature;BMP_pressure;BME280_temperature;BME280_humidity;BME280_pressure;Samples;Min_cycle;Max_cycle;Signal;HPM_P1;HPM_P2
2022/06/15 00:00:42;;;;;;;2.93;2.40;;;;;;;;;;5087327;28;20532;-50
2022/06/15 00:03:09;;;;;;;3.57;2.83;;;;;;;;;;5086865;28;20296;-50
2022/06/15 00:05:36;;;;;;;5.73;3.47;;;;;;;;;;5088673;28;20638;-50
2022/06/15 00:08:02;;;;;;;4.93;2.73;;;;;;;;;;5088568;28;20554;-49
2022/06/15 00:10:28;;;;;;;3.63;2.50;;;;;;;;;;5093493;28;20187;-49
2022/06/15 00:12:54;;;;;;;3.23;2.43;;;;;;;;;;5088217;28;20690;-50
2022/06/15 00:15:20;;;;;;;4.80;3.00;;;;;;;;;;5077100;28;20184;-50
2022/06/15 00:17:47;;;;;;;2.63;2.23;;;;;;;;;;5088259;28;20184;-50
2022/06/15 00:20:14;;;;;;;3.42;2.53;;;;;;;;;;5069123;28;20866;-50
2022/06/15 00:22:41;;;;;;;3.30;2.57;;;;;;;;;;5086698;28;20614;-50
2022/06/15 00:25:08;;;;;;;6.07;2.70;;;;;;;;;;5084618;28;20184;-49
2022/06/15 00:27:34;;;;;;;4.27;2.40;;;;;;;;;;5065946;28;20207;-49
2022/06/15 00:30:00;;;;;;;2.47;2.23;;;;;;;;;;5085835;28;20259;-50
2022/06/15 00:32:33;;;;;;;3.97;2.53;;;;;;;;;;5059736;28;20192;-49
2022/06/15 00:34:59;;;;;;;3.93;2.37;;;;;;;;;;5068380;28;20176;-49
2022/06/15 00:37:25;;;;;;;3.47;2.47;;;;;;;;;;5061724;28;20194;-50
2022/06/15 00:39:51;;;;;;;3.73;2.50;;;;;;;;;;5080864;28;20652;-50
2022/06/15 00:42:19;;;;;;;4.63;2.47;;;;;;;;;;5087281;28;20204;-50
2022/06/15 00:44:45;;;;;;;5.80;2.40;;;;;;;;;;5086535;28;20299;-50
2022/06/15 00:47:22;;;;;;;3.97;2.77;;;;;;;;;;5068773;28;20237;-50
2022/06/15 00:50:02;;;;;;;4.47;2.23;;;;;;;;;;5086631;28;20179;-50
2022/06/15 00:52:33;;;;;;;3.10;2.17;;;;;;;;;;5063334;28;20686;-50
2022/06/15 00:55:00;;;;;;;3.27;2.43;;;;;;;;;;5058287;28;20228;-50
2022/06/15 00:57:26;;;;;;;3.80;2.80;;;;;;;;;;5080194;28;20224;-50
2022/06/15 00:59:54;;;;;;;2.67;2.47;;;;;;;;;;5062893;28;20188;-50
2022/06/15 01:02:21;;;;;;;4.70;2.57;;;;;;;;;;5073934;28;20174;-50
2022/06/15 01:04:52;;;;;;;3.57;2.47;;;;;;;;;;5058678;28;20217;-50
2022/06/15 01:07:37;;;;;;;3.90;2.80;;;;;;;;;;5060329;28;20197;-50
2022/06/15 01:10:12;;;;;;;3.93;2.70;;;;;;;;;;5072080;28;20263;-56
2022/06/15 01:13:16;;;;;;;3.47;2.40;;;;;;;;;;5083655;28;20176;-50
2022/06/15 01:15:51;;;;;;;5.43;2.50;;;;;;;;;;4983106;28;20264;-50
2022/06/15 01:18:27;;;;;;;6.13;2.90;;;;;;;;;;4981215;28;20191;-50
2022/06/15 01:20:56;;;;;;;3.13;2.47;;;;;;;;;;5031307;28;20508;-50
2022/06/15 01:23:37;;;;;;;3.27;2.20;;;;;;;;;;5053339;28;20917;-50
2022/06/15 01:26:22;;;;;;;3.97;2.60;;;;;;;;;;5053941;28;20175;-49
2022/06/15 01:28:57;;;;;;;5.33;3.30;;;;;;;;;;5084909;28;20529;-50
2022/06/15 01:31:27;;;;;;;3.30;2.47;;;;;;;;;;5051552;28;20200;-50
2022/06/15 01:33:56;;;;;;;5.93;2.90;;;;;;;;;;5082308;28;20586;-50
2022/06/15 01:36:28;;;;;;;3.60;2.53;;;;;;;;;;5066341;28;20222;-50
2022/06/15 01:39:00;;;;;;;4.87;3.00;;;;;;;;;;5066151;28;20686;-50
2022/06/15 01:41:33;;;;;;;5.73;3.03;;;;;;;;;;5059718;28;20291;-50
2022/06/15 01:44:02;;;;;;;3.77;2.93;;;;;;;;;;5086556;28;20172;-50
2022/06/15 01:46:29;;;;;;;4.40;2.70;;;;;;;;;;5071931;28;20191;-50
2022/06/15 01:48:56;;;;;;;4.47;2.77;;;;;;;;;;5084886;28;20665;-50
2022/06/15 01:51:25;;;;;;;4.80;2.63;;;;;;;;;;5066690;28;20192;-50
2022/06/15 01:53:58;;;;;;;4.17;2.53;;;;;;;;;;5082911;28;20210;-50
2022/06/15 01:56:24;;;;;;;4.20;2.50;;;;;;;;;;5074241;28;20181;-50
2022/06/15 01:58:53;;;;;;;3.77;2.97;;;;;;;;;;5081943;28;20959;-50
2022/06/15 02:01:31;;;;;;;4.47;2.40;;;;;;;;;;5052599;28;20289;-50
2022/06/15 02:04:04;;;;;;;4.13;2.90;;;;;;;;;;5084782;28;20196;-50
2022/06/15 02:06:36;;;;;;;4.60;2.60;;;;;;;;;;5057013;28;20180;-49
2022/06/15 02:09:05;;;;;;;4.93;2.47;;;;;;;;;;5084083;28;20272;-50
2022/06/15 02:11:35;;;;;;;6.07;2.70;;;;;;;;;;5060332;28;20696;-50
2022/06/15 02:14:05;;;;;;;4.03;2.13;;;;;;;;;;5085359;28;20152;-50
2022/06/15 02:16:36;;;;;;;4.47;2.83;;;;;;;;;;5079026;28;20191;-50
2022/06/15 02:19:04;;;;;;;4.50;2.73;;;;;;;;;;5086083;28;20186;-49
2022/06/15 02:21:30;;;;;;;3.73;2.43;;;;;;;;;;5067719;28;20203;-50
2022/06/15 02:24:00;;;;;;;3.10;2.60;;;;;;;;;;5079978;28;20200;-49
2022/06/15 02:26:28;;;;;;;4.43;2.53;;;;;;;;;;5054578;28;20535;-50
2022/06/15 02:28:57;;;;;;;2.60;2.40;;;;;;;;;;5086764;28;20206;-50
2022/06/15 02:31:23;;;;;;;2.70;2.50;;;;;;;;;;5064896;28;20511;-50
2022/06/15 02:33:53;;;;;;;4.20;2.70;;;;;;;;;;5061963;28;20348;-50
2022/06/15 02:36:19;;;;;;;2.70;2.50;;;;;;;;;;5052935;28;20184;-50
2022/06/15 02:38:49;;;;;;;3.93;2.57;;;;;;;;;;5085529;28;20179;-50
2022/06/15 02:41:19;;;;;;;5.10;2.90;;;;;;;;;;5067021;28;20583;-50
2022/06/15 02:43:47;;;;;;;6.07;3.27;;;;;;;;;;5031584;28;20188;-50
2022/06/15 02:46:13;;;;;;;4.83;4.47;;;;;;;;;;5068688;28;20192;-50
2022/06/15 02:48:40;;;;;;;3.30;2.57;;;;;;;;;;5066551;28;20224;-50
2022/06/15 02:51:18;;;;;;;4.80;3.17;;;;;;;;;;5062963;28;20215;-50
2022/06/15 02:53:45;;;;;;;3.67;2.40;;;;;;;;;;5076359;28;20233;-50
2022/06/15 02:56:19;;;;;;;2.80;2.57;;;;;;;;;;5071006;28;20238;-50
2022/06/15 02:58:46;;;;;;;5.43;3.43;;;;;;;;;;5081223;28;20226;-50
2022/06/15 03:01:12;;;;;;;4.47;3.97;;;;;;;;;;5074104;28;20568;-50
2022/06/15 03:03:39;;;;;;;2.97;2.47;;;;;;;;;;5064340;28;20211;-50
2022/06/15 03:06:13;;;;;;;3.50;2.70;;;;;;;;;;5053561;28;20198;-49
2022/06/15 03:08:39;;;;;;;4.00;2.83;;;;;;;;;;5065821;28;20176;-50
2022/06/15 03:11:08;;;;;;;5.43;2.67;;;;;;;;;;5072659;28;20183;-50
2022/06/15 03:13:34;;;;;;;2.93;2.60;;;;;;;;;;5080992;28;20207;-50
2022/06/15 03:16:01;;;;;;;3.60;3.03;;;;;;;;;;5069621;28;20192;-51
2022/06/15 03:18:27;;;;;;;4.80;2.90;;;;;;;;;;5086766;28;20564;-50
2022/06/15 03:20:57;;;;;;;3.23;2.60;;;;;;;;;;5069570;28;20169;-50
2022/06/15 03:23:24;;;;;;;3.77;2.63;;;;;;;;;;5055888;28;20185;-50
2022/06/15 03:25:58;;;;;;;4.70;2.70;;;;;;;;;;5054651;28;20291;-51
2022/06/15 03:28:24;;;;;;;3.97;2.67;;;;;;;;;;5067287;28;20536;-50
2022/06/15 03:30:51;;;;;;;3.87;3.13;;;;;;;;;;5068781;28;20175;-50
2022/06/15 03:33:17;;;;;;;5.20;4.80;;;;;;;;;;5065656;28;20269;-50
2022/06/15 03:35:44;;;;;;;5.10;3.50;;;;;;;;;;5071522;28;20192;-50
2022/06/15 03:38:10;;;;;;;3.83;2.77;;;;;;;;;;5065141;28;20184;-50
2022/06/15 03:40:37;;;;;;;5.13;3.03;;;;;;;;;;5070542;28;20729;-50
2022/06/15 03:43:04;;;;;;;3.33;2.90;;;;;;;;;;5080448;28;20639;-50
2022/06/15 03:45:30;;;;;;;3.00;2.60;;;;;;;;;;5076979;28;20490;-50
2022/06/15 03:47:56;;;;;;;3.43;2.97;;;;;;;;;;5068069;28;20704;-50
2022/06/15 03:50:23;;;;;;;4.70;2.93;;;;;;;;;;5042349;28;20262;-49
2022/06/15 03:52:50;;;;;;;4.93;3.47;;;;;;;;;;5085206;28;20160;-49
2022/06/15 03:55:16;;;;;;;5.57;3.23;;;;;;;;;;5099293;28;20614;-50
2022/06/15 03:57:42;;;;;;;3.43;3.13;;;;;;;;;;5101736;28;20276;-50
2022/06/15 04:00:11;;;;;;;4.80;3.13;;;;;;;;;;5090803;28;20191;-50
2022/06/15 04:02:38;;;;;;;3.40;3.10;;;;;;;;;;5088145;28;20718;-49
2022/06/15 04:05:04;;;;;;;5.47;3.47;;;;;;;;;;5069329;28;20251;-49
2022/06/15 04:10:29;;;;;;;4.93;3.50;;;;;;;;;;5075901;28;20231;-50
2022/06/15 04:12:55;;;;;;;3.73;2.87;;;;;;;;;;5090590;28;20189;-49
2022/06/15 04:15:22;;;;;;;3.50;3.10;;;;;;;;;;5069763;28;20175;-50
2022/06/15 04:17:48;;;;;;;4.93;3.20;;;;;;;;;;5089232;28;20166;-49
2022/06/15 04:20:33;;;;;;;4.80;2.90;;;;;;;;;;5094549;28;20548;-50
2022/06/15 04:23:03;;;;;;;9.57;3.70;;;;;;;;;;5088359;28;20172;-50
2022/06/15 04:25:30;;;;;;;3.50;2.70;;;;;;;;;;5097956;28;20187;-49
2022/06/15 04:27:56;;;;;;;5.70;4.47;;;;;;;;;;5085241;28;20285;-49
2022/06/15 04:30:23;;;;;;;6.60;3.47;;;;;;;;;;5100174;28;20544;-50
2022/06/15 04:32:49;;;;;;;4.80;3.10;;;;;;;;;;5088929;28;20175;-48
2022/06/15 04:35:16;;;;;;;4.00;3.47;;;;;;;;;;5088532;28;20186;-48
2022/06/15 04:37:42;;;;;;;6.60;3.13;;;;;;;;;;5089063;28;20187;-50
2022/06/15 04:40:08;;;;;;;4.53;3.33;;;;;;;;;;5096304;28;20241;-49
2022/06/15 04:42:36;;;;;;;5.20;2.93;;;;;;;;;;5065794;28;20658;-50
2022/06/15 04:45:02;;;;;;;4.20;2.90;;;;;;;;;;5078528;28;20593;-50
2022/06/15 04:47:29;;;;;;;3.57;2.70;;;;;;;;;;5106480;28;20159;-49
2022/06/15 04:49:55;;;;;;;4.20;3.40;;;;;;;;;;5069940;28;20712;-49
2022/06/15 04:52:21;;;;;;;4.43;3.03;;;;;;;;;;5065341;28;20187;-49
2022/06/15 04:54:48;;;;;;;6.43;3.30;;;;;;;;;;5077042;28;20231;-49
2022/06/15 04:57:14;;;;;;;5.97;3.30;;;;;;;;;;5106087;27;20239;-49
2022/06/15 04:59:40;;;;;;;3.93;3.40;;;;;;;;;;5094716;28;20321;-49
2022/06/15 05:02:06;;;;;;;7.10;4.33;;;;;;;;;;5107581;28;20386;-49
2022/06/15 05:04:33;;;;;;;5.30;3.20;;;;;;;;;;5108066;28;20282;-50
2022/06/15 05:06:59;;;;;;;5.57;3.70;;;;;;;;;;5107941;28;20286;-49
2022/06/15 05:09:26;;;;;;;4.83;3.30;;;;;;;;;;5089754;28;20203;-49
2022/06/15 05:11:52;;;;;;;7.50;3.70;;;;;;;;;;5108728;28;20546;-49
2022/06/15 05:14:18;;;;;;;5.77;3.67;;;;;;;;;;5108213;28;20802;-50
2022/06/15 05:16:44;;;;;;;5.37;3.53;;;;;;;;;;5104537;28;20210;-50
2022/06/15 05:19:10;;;;;;;7.80;3.63;;;;;;;;;;5086622;28;20198;-50
2022/06/15 05:21:41;;;;;;;4.80;3.47;;;;;;;;;;5089266;28;20187;-50
2022/06/15 05:24:07;;;;;;;4.13;3.20;;;;;;;;;;5103899;28;20277;-49
2022/06/15 05:26:34;;;;;;;5.03;3.23;;;;;;;;;;5089355;28;20202;-51
2022/06/15 05:29:00;;;;;;;5.67;4.00;;;;;;;;;;5108939;27;20207;-50
2022/06/15 05:31:34;;;;;;;7.67;4.00;;;;;;;;;;5090059;28;20202;-50
2022/06/15 05:34:01;;;;;;;4.53;3.70;;;;;;;;;;5089558;28;20184;-49
2022/06/15 05:36:29;;;;;;;5.90;3.83;;;;;;;;;;5107761;28;20491;-49
2022/06/15 05:38:55;;;;;;;6.53;3.73;;;;;;;;;;5106787;28;20608;-50
2022/06/15 05:41:21;;;;;;;8.10;3.93;;;;;;;;;;5088812;28;20232;-53
2022/06/15 05:43:59;;;;;;;6.33;3.73;;;;;;;;;;5107692;28;20175;-48
2022/06/15 05:46:27;;;;;;;6.00;3.73;;;;;;;;;;5107634;28;20191;-51
2022/06/15 05:48:56;;;;;;;10.27;3.57;;;;;;;;;;5087324;28;20544;-51
2022/06/15 05:51:22;;;;;;;5.60;3.90;;;;;;;;;;5106729;28;20446;-51
2022/06/15 05:53:49;;;;;;;9.03;4.13;;;;;;;;;;5108274;28;20175;-50
2022/06/15 05:56:22;;;;;;;6.03;4.30;;;;;;;;;;5105136;28;20219;-51
2022/06/15 05:58:55;;;;;;;4.47;3.63;;;;;;;;;;5079941;28;20188;-51
2022/06/15 06:01:27;;;;;;;4.30;3.50;;;;;;;;;;5086020;28;20176;-52
2022/06/15 06:03:54;;;;;;;7.50;4.23;;;;;;;;;;5068508;28;20542;-50
2022/06/15 06:06:20;;;;;;;4.93;3.90;;;;;;;;;;5085633;28;20668;-52
2022/06/15 06:08:46;;;;;;;6.13;4.10;;;;;;;;;;5083585;28;20203;-51
2022/06/15 06:11:12;;;;;;;7.93;4.27;;;;;;;;;;5086041;28;20176;-52
2022/06/15 06:13:39;;;;;;;5.17;3.83;;;;;;;;;;5086067;28;20187;-51
2022/06/15 06:16:05;;;;;;;7.23;4.37;;;;;;;;;;5078929;28;20415;-52
2022/06/15 06:18:31;;;;;;;4.87;3.70;;;;;;;;;;5069414;28;20182;-52
2022/06/15 06:20:58;;;;;;;7.30;4.10;;;;;;;;;;5074709;28;20183;-53
2022/06/15 06:23:24;;;;;;;7.17;3.50;;;;;;;;;;5086748;28;20654;-52
2022/06/15 06:25:52;;;;;;;5.53;4.40;;;;;;;;;;5065674;28;20187;-51
2022/06/15 06:28:18;;;;;;;7.93;4.77;;;;;;;;;;5085629;28;20457;-57
2022/06/15 06:30:44;;;;;;;4.37;3.77;;;;;;;;;;5086116;28;20167;-52
2022/06/15 06:33:10;;;;;;;5.80;3.77;;;;;;;;;;5085821;28;20186;-52
2022/06/15 06:35:36;;;;;;;7.07;3.70;;;;;;;;;;5085829;28;20172;-52
2022/06/15 06:38:02;;;;;;;6.33;4.00;;;;;;;;;;5068167;28;20274;-52
2022/06/15 06:40:29;;;;;;;4.60;3.37;;;;;;;;;;5086202;28;20658;-52
2022/06/15 06:42:55;;;;;;;8.50;3.53;;;;;;;;;;5084758;28;20203;-51
2022/06/15 06:45:22;;;;;;;6.53;3.73;;;;;;;;;;5059905;28;20188;-52
2022/06/15 06:47:48;;;;;;;6.70;3.70;;;;;;;;;;5051805;28;20224;-53
2022/06/15 06:50:14;;;;;;;5.83;3.57;;;;;;;;;;5084235;28;20558;-50
2022/06/15 06:52:42;;;;;;;11.47;4.43;;;;;;;;;;5085461;28;20164;-53
2022/06/15 06:55:09;;;;;;;10.03;4.50;;;;;;;;;;5079599;28;20306;-51
2022/06/15 06:57:35;;;;;;;5.13;3.50;;;;;;;;;;5075291;28;20188;-51
2022/06/15 07:00:02;;;;;;;5.20;3.53;;;;;;;;;;5063612;28;20176;-51
2022/06/15 07:02:28;;;;;;;4.30;3.90;;;;;;;;;;5080987;28;20680;-51
2022/06/15 07:04:54;;;;;;;5.87;4.07;;;;;;;;;;5093423;28;20171;-51
2022/06/15 07:07:20;;;;;;;10.17;4.00;;;;;;;;;;5100031;28;20168;-50
2022/06/15 07:09:46;;;;;;;6.27;3.67;;;;;;;;;;5086012;28;20207;-50
2022/06/15 07:12:13;;;;;;;5.10;3.73;;;;;;;;;;5050660;28;20484;-51
2022/06/15 07:14:39;;;;;;;6.10;3.70;;;;;;;;;;5093670;28;20182;-52
2022/06/15 07:17:05;;;;;;;5.07;4.47;;;;;;;;;;5102953;28;20589;-52
2022/06/15 07:19:31;;;;;;;7.07;3.80;;;;;;;;;;5080638;28;20192;-51
2022/06/15 07:21:57;;;;;;;4.83;3.87;;;;;;;;;;5080395;28;20172;-52
2022/06/15 07:24:24;;;;;;;7.23;3.73;;;;;;;;;;5066004;28;20191;-52
2022/06/15 07:26:50;;;;;;;7.13;3.77;;;;;;;;;;5066561;28;20176;-52
2022/06/15 07:29:19;;;;;;;7.13;3.40;;;;;;;;;;5071457;28;20214;-52
2022/06/15 07:31:47;;;;;;;5.40;3.27;;;;;;;;;;5092832;28;20198;-51
2022/06/15 07:34:13;;;;;;;6.80;3.67;;;;;;;;;;5068777;28;20184;-51
2022/06/15 07:36:46;;;;;;;7.50;4.23;;;;;;;;;;5087799;28;20647;-52
2022/06/15 07:39:12;;;;;;;4.73;3.70;;;;;;;;;;5097557;28;20508;-52
2022/06/15 07:41:38;;;;;;;10.33;4.07;;;;;;;;;;5072478;28;20184;-52
2022/06/15 07:44:05;;;;;;;5.03;3.27;;;;;;;;;;5076321;28;20601;-52
2022/06/15 07:46:31;;;;;;;5.90;2.97;;;;;;;;;;5089692;28;20188;-54
2022/06/15 07:51:45;;;;;;;5.00;3.30;;;;;;;;;;5088083;28;20202;-53
2022/06/15 07:54:13;;;;;;;3.57;2.97;;;;;;;;;;5053415;28;20183;-53
2022/06/15 07:56:40;;;;;;;10.03;3.40;;;;;;;;;;5082014;28;20214;-53
2022/06/15 07:59:06;;;;;;;5.40;3.30;;;;;;;;;;5090741;28;20175;-53
2022/06/15 08:01:33;;;;;;;5.27;3.63;;;;;;;;;;5074001;28;20192;-51
2022/06/15 08:04:00;;;;;;;4.07;3.10;;;;;;;;;;5083897;28;20183;-51
2022/06/15 08:06:26;;;;;;;6.20;3.30;;;;;;;;;;5092908;28;20197;-52
2022/06/15 08:08:52;;;;;;;5.00;3.10;;;;;;;;;;5085944;28;20626;-52
2022/06/15 08:11:19;;;;;;;7.07;3.47;;;;;;;;;;5084078;28;20237;-53
2022/06/15 08:13:46;;;;;;;6.87;3.53;;;;;;;;;;5070292;28;20635;-52
2022/06/15 08:16:13;;;;;;;4.83;3.00;;;;;;;;;;5096766;28;20522;-52
2022/06/15 08:18:41;;;;;;;5.30;3.03;;;;;;;;;;5088521;28;20661;-53
2022/06/15 08:21:10;;;;;;;5.13;4.20;;;;;;;;;;5062973;28;20208;-54
2022/06/15 08:23:40;;;;;;;5.83;3.97;;;;;;;;;;5069220;28;20184;-53
2022/06/15 08:26:10;;;;;;;7.03;3.63;;;;;;;;;;5075725;28;20215;-53
2022/06/15 08:28:38;;;;;;;7.57;3.27;;;;;;;;;;5087867;28;20309;-53
2022/06/15 08:31:05;;;;;;;4.93;3.20;;;;;;;;;;5095432;28;20185;-51
2022/06/15 08:33:31;;;;;;;6.07;3.77;;;;;;;;;;5088271;28;20656;-52
2022/06/15 08:35:57;;;;;;;7.67;3.40;;;;;;;;;;5100286;28;20291;-52
2022/06/15 08:38:24;;;;;;;4.37;3.03;;;;;;;;;;5087231;28;20511;-53
2022/06/15 08:40:55;;;;;;;5.83;3.60;;;;;;;;;;5084802;28;20179;-54
2022/06/15 08:43:24;;;;;;;9.20;3.37;;;;;;;;;;5088683;28;20500;-53
2022/06/15 08:45:56;;;;;;;7.57;3.30;;;;;;;;;;5085804;28;20214;-53
2022/06/15 08:48:25;;;;;;;6.17;3.97;;;;;;;;;;5068127;28;20206;-53
2022/06/15 08:50:55;;;;;;;3.77;3.10;;;;;;;;;;5068650;28;20235;-52
2022/06/15 08:53:53;;;;;;;5.37;3.77;;;;;;;;;;5087180;28;20205;-53
2022/06/15 08:56:22;;;;;;;4.13;3.20;;;;;;;;;;5023500;28;20818;-52
2022/06/15 08:58:50;;;;;;;5.13;3.13;;;;;;;;;;5085506;28;20679;-52
2022/06/15 09:01:26;;;;;;;7.37;3.27;;;;;;;;;;5084587;28;20613;-52
2022/06/15 09:04:02;;;;;;;5.47;3.43;;;;;;;;;;5083570;28;20624;-51
2022/06/15 09:06:38;;;;;;;5.43;3.23;;;;;;;;;;5083785;28;20192;-51
2022/06/15 09:09:40;;;;;;;5.83;3.60;;;;;;;;;;5087598;28;20211;-52
2022/06/15 09:15:33;;;;;;;9.67;3.37;;;;;;;;;;5084625;28;20194;-52
2022/06/15 09:18:29;;;;;;;11.57;3.80;;;;;;;;;;5042617;28;20341;-51
2022/06/15 09:20:55;;;;;;;6.50;3.00;;;;;;;;;;5070348;28;20697;-52
2022/06/15 09:23:27;;;;;;;4.88;3.13;;;;;;;;;;5087283;28;20428;-52
2022/06/15 09:26:03;;;;;;;6.93;3.80;;;;;;;;;;5095526;28;20180;-51
2022/06/15 09:28:40;;;;;;;5.07;3.13;;;;;;;;;;5083281;28;20681;-53
2022/06/15 09:31:10;;;;;;;4.00;2.53;;;;;;;;;;5066619;28;20255;-51
2022/06/15 09:33:41;;;;;;;7.40;2.97;;;;;;;;;;5085096;28;20164;-52
2022/06/15 09:36:10;;;;;;;5.53;2.93;;;;;;;;;;5105259;28;20183;-52
2022/06/15 09:38:38;;;;;;;5.17;3.20;;;;;;;;;;5111167;28;20152;-52
2022/06/15 09:41:30;;;;;;;4.97;2.90;;;;;;;;;;5070390;28;20642;-52
2022/06/15 09:43:57;;;;;;;5.43;2.93;;;;;;;;;;5043283;28;20507;-53
2022/06/15 09:46:33;;;;;;;4.83;3.30;;;;;;;;;;5068547;28;20394;-53
2022/06/15 09:49:05;;;;;;;5.47;3.20;;;;;;;;;;5067668;28;20693;-53
2022/06/15 09:51:40;;;;;;;4.40;3.10;;;;;;;;;;5081819;28;20536;-57
2022/06/15 09:54:22;;;;;;;3.23;2.60;;;;;;;;;;5085051;28;20167;-52
2022/06/15 09:56:49;;;;;;;5.27;3.80;;;;;;;;;;5084500;28;20220;-52
2022/06/15 09:59:17;;;;;;;5.03;3.30;;;;;;;;;;5064701;28;20176;-52
2022/06/15 10:01:45;;;;;;;7.80;3.00;;;;;;;;;;5086826;28;20635;-52
2022/06/15 10:04:28;;;;;;;4.70;2.83;;;;;;;;;;5065460;28;20191;-53
2022/06/15 10:06:57;;;;;;;3.20;2.63;;;;;;;;;;5086060;28;20176;-53
2022/06/15 10:09:26;;;;;;;4.77;2.73;;;;;;;;;;5084067;28;20253;-53
2022/06/15 10:12:55;;;;;;;6.07;3.23;;;;;;;;;;5066007;28;20172;-53
2022/06/15 10:14:43;;;;;;;5.47;2.73;;;;;;;;;;5086278;28;20184;-53
2022/06/15 10:17:33;;;;;;;3.53;2.53;;;;;;;;;;5078440;28;20528;-54
2022/06/15 10:20:00;;;;;;;3.80;2.80;;;;;;;;;;5063639;28;20195;-51
2022/06/15 10:22:31;;;;;;;4.00;2.90;;;;;;;;;;5061251;28;20184;-51
2022/06/15 10:24:59;;;;;;;5.80;2.70;;;;;;;;;;5087722;28;20557;-52
2022/06/15 10:27:25;;;;;;;6.47;2.40;;;;;;;;;;5063616;28;20184;-53
2022/06/15 10:30:04;;;;;;;3.70;2.50;;;;;;;;;;5077800;28;21215;-51
2022/06/15 10:32:31;;;;;;;3.53;2.70;;;;;;;;;;5079203;28;20187;-51
2022/06/15 10:35:03;;;;;;;3.93;3.40;;;;;;;;;;5086401;28;20920;-52
2022/06/15 10:37:34;;;;;;;3.50;2.87;;;;;;;;;;5080324;28;20646;-51
2022/06/15 10:40:07;;;;;;;3.73;2.50;;;;;;;;;;5079617;28;20393;-51
2022/06/15 10:42:38;;;;;;;3.03;2.67;;;;;;;;;;5081315;28;20249;-52
2022/06/15 10:45:07;;;;;;;3.07;2.77;;;;;;;;;;5077462;28;20183;-52
2022/06/15 10:47:40;;;;;;;3.37;2.30;;;;;;;;;;5085531;28;20191;-52
2022/06/15 10:50:08;;;;;;;4.37;2.70;;;;;;;;;;5086221;28;20531;-51
2022/06/15 10:52:37;;;;;;;3.17;2.53;;;;;;;;;;5069894;28;20183;-52
2022/06/15 11:03:41;;;;;;;4.10;2.40;;;;;;;;;;5074820;28;20326;-52
2022/06/15 11:06:08;;;;;;;3.67;3.43;;;;;;;;;;5067004;28;20721;-51
2022/06/15 11:08:35;;;;;;;3.50;2.90;;;;;;;;;;5071200;28;20213;-51
2022/06/15 11:11:24;;;;;;;4.07;2.63;;;;;;;;;;5046908;28;20699;-52
2022/06/15 11:14:07;;;;;;;4.87;2.60;;;;;;;;;;5056354;28;20261;-52
2022/06/15 11:19:24;;;;;;;3.27;2.73;;;;;;;;;;5067215;28;20718;-52
2022/06/15 11:21:53;;;;;;;3.37;2.30;;;;;;;;;;5065244;28;20227;-51
2022/06/15 11:24:26;;;;;;;5.63;4.63;;;;;;;;;;5049047;28;20189;-52
2022/06/15 11:26:55;;;;;;;3.17;2.87;;;;;;;;;;5048648;28;20184;-54
2022/06/15 11:29:27;;;;;;;3.20;2.87;;;;;;;;;;5069859;28;20196;-53
2022/06/15 11:31:55;;;;;;;3.30;2.43;;;;;;;;;;5060688;28;20209;-53
2022/06/15 11:34:25;;;;;;;3.13;2.90;;;;;;;;;;5066598;28;20346;-53
2022/06/15 11:36:58;;;;;;;3.17;2.83;;;;;;;;;;5078146;28;20529;-52
2022/06/15 11:39:31;;;;;;;4.80;2.40;;;;;;;;;;5067590;28;20225;-52
2022/06/15 11:42:08;;;;;;;2.87;2.63;;;;;;;;;;5040653;28;20289;-53
2022/06/15 11:44:36;;;;;;;3.07;2.30;;;;;;;;;;5084974;28;20616;-53
2022/06/15 11:47:13;;;;;;;5.37;2.93;;;;;;;;;;5064177;28;20182;-52
2022/06/15 11:49:47;;;;;;;2.97;2.60;;;;;;;;;;5051305;28;20440;-53
2022/06/15 11:52:13;;;;;;;3.70;2.97;;;;;;;;;;5085207;28;20416;-52
2022/06/15 11:54:51;;;;;;;2.70;2.50;;;;;;;;;;5074808;27;20627;-53
2022/06/15 11:57:29;;;;;;;3.97;3.30;;;;;;;;;;5097996;28;20555;-53
2022/06/15 11:59:56;;;;;;;2.73;2.53;;;;;;;;;;5079652;28;20647;-52
2022/06/15 12:02:25;;;;;;;4.77;4.07;;;;;;;;;;5099804;28;20265;-53
2022/06/15 12:05:09;;;;;;;3.27;2.97;;;;;;;;;;5090677;28;20189;-53
2022/06/15 12:07:35;;;;;;;4.93;2.63;;;;;;;;;;5083882;28;21044;-52
2022/06/15 12:10:16;;;;;;;5.00;2.53;;;;;;;;;;5084227;28;20201;-53
2022/06/15 12:12:53;;;;;;;4.47;2.70;;;;;;;;;;5071324;28;20194;-53
2022/06/15 12:15:34;;;;;;;3.27;3.03;;;;;;;;;;5098228;28;20191;-52
2022/06/15 12:18:24;;;;;;;3.90;3.30;;;;;;;;;;5094478;28;20197;-52
2022/06/15 12:20:52;;;;;;;2.87;2.60;;;;;;;;;;5096633;28;20541;-53
2022/06/15 12:23:24;;;;;;;4.57;4.13;;;;;;;;;;5109636;28;20188;-53
2022/06/15 12:26:05;;;;;;;3.80;2.77;;;;;;;;;;5085846;28;20191;-53
2022/06/15 12:28:37;;;;;;;3.27;3.00;;;;;;;;;;5081452;28;20200;-53
2022/06/15 12:31:11;;;;;;;4.23;2.90;;;;;;;;;;5086159;28;20493;-52
2022/06/15 12:33:53;;;;;;;3.03;2.80;;;;;;;;;;5074751;28;20271;-52
2022/06/15 12:36:23;;;;;;;3.00;2.70;;;;;;;;;;5103998;28;20258;-52
2022/06/15 12:39:18;;;;;;;3.97;2.93;;;;;;;;;;5091831;28;20552;-52
2022/06/15 12:44:38;;;;;;;4.07;2.60;;;;;;;;;;5090655;28;20191;-52
2022/06/15 12:47:08;;;;;;;3.57;2.70;;;;;;;;;;5059537;28;20601;-53
2022/06/15 12:49:45;;;;;;;3.00;2.70;;;;;;;;;;5079175;28;20201;-52
2022/06/15 12:52:22;;;;;;;3.27;2.70;;;;;;;;;;5078781;28;20189;-52
2022/06/15 12:55:06;;;;;;;3.23;2.93;;;;;;;;;;5094204;28;20197;-52
2022/06/15 12:57:47;;;;;;;3.73;3.27;;;;;;;;;;5075772;28;20678;-53
2022/06/15 13:00:26;;;;;;;4.03;2.70;;;;;;;;;;5070509;28;20247;-52
2022/06/15 13:03:00;;;;;;;3.47;2.73;;;;;;;;;;5062299;28;20201;-52
2022/06/15 13:05:31;;;;;;;5.53;2.47;;;;;;;;;;5062313;28;20263;-52
2022/06/15 13:08:14;;;;;;;2.90;2.60;;;;;;;;;;5055896;28;20186;-53
2022/06/15 13:10:56;;;;;;;4.10;2.83;;;;;;;;;;5084105;28;20187;-53
2022/06/15 13:13:49;;;;;;;3.23;2.90;;;;;;;;;;5050114;28;20215;-53
2022/06/15 13:16:29;;;;;;;5.33;3.23;;;;;;;;;;5043507;28;20188;-53
2022/06/15 13:18:56;;;;;;;4.33;2.50;;;;;;;;;;5068869;28;20187;-53
2022/06/15 13:21:24;;;;;;;2.60;2.40;;;;;;;;;;5064257;28;20663;-53
2022/06/15 13:23:53;;;;;;;3.47;2.93;;;;;;;;;;5062392;28;20606;-52
2022/06/15 13:26:23;;;;;;;3.20;2.93;;;;;;;;;;5071320;28;20176;-52
2022/06/15 13:29:17;;;;;;;3.37;2.83;;;;;;;;;;5068905;28;20291;-53
2022/06/15 13:31:43;;;;;;;4.03;3.63;;;;;;;;;;5047617;28;20271;-50
2022/06/15 13:34:13;;;;;;;4.93;3.63;;;;;;;;;;5050008;28;20197;-50
2022/06/15 13:36:40;;;;;;;4.03;3.43;;;;;;;;;;5069943;28;20224;-51
2022/06/15 13:39:25;;;;;;;6.37;3.70;;;;;;;;;;5086772;28;20172;-51
2022/06/15 13:42:10;;;;;;;5.20;3.73;;;;;;;;;;5066833;28;20870;-51
2022/06/15 13:44:49;;;;;;;6.10;3.43;;;;;;;;;;5071859;28;20210;-51
2022/06/15 13:47:15;;;;;;;3.93;3.07;;;;;;;;;;5057620;28;20188;-50
2022/06/15 13:49:42;;;;;;;5.13;3.40;;;;;;;;;;5060673;28;20646;-52
2022/06/15 13:52:11;;;;;;;7.97;3.72;;;;;;;;;;5065002;28;20889;-52
2022/06/15 13:54:50;;;;;;;4.68;3.92;;;;;;;;;;5051139;28;20973;-53
2022/06/15 13:57:22;;;;;;;6.32;4.50;;;;;;;;;;5070689;28;20208;-52
2022/06/15 13:59:54;;;;;;;7.00;6.40;;;;;;;;;;5070834;28;20194;-53
2022/06/15 14:02:20;;;;;;;7.32;5.80;;;;;;;;;;5067597;28;20215;-53
2022/06/15 14:05:05;;;;;;;8.02;3.97;;;;;;;;;;5073573;28;20180;-52
2022/06/15 14:07:31;;;;;;;6.40;4.43;;;;;;;;;;5080776;28;20180;-52
2022/06/15 14:10:00;;;;;;;9.38;4.68;;;;;;;;;;5074786;28;20205;-52
2022/06/15 14:12:26;;;;;;;5.47;3.97;;;;;;;;;;5069522;28;20264;-52
2022/06/15 14:14:58;;;;;;;5.05;3.85;;;;;;;;;;5043645;28;20176;-53
2022/06/15 14:17:38;;;;;;;5.82;3.70;;;;;;;;;;5062272;28;20184;-52
2022/06/15 14:20:04;;;;;;;7.40;4.50;;;;;;;;;;5066314;28;20663;-52
2022/06/15 14:22:43;;;;;;;6.70;4.60;;;;;;;;;;5064710;28;20222;-52
2022/06/15 14:25:14;;;;;;;7.10;4.27;;;;;;;;;;5049934;28;20697;-52
2022/06/15 14:27:40;;;;;;;5.37;4.40;;;;;;;;;;5050763;28;20702;-52
2022/06/15 14:30:17;;;;;;;5.60;4.30;;;;;;;;;;5075447;28;20199;-52
2022/06/15 14:32:43;;;;;;;5.85;4.35;;;;;;;;;;5060875;28;20172;-51
2022/06/15 14:35:16;;;;;;;4.35;3.95;;;;;;;;;;5078173;28;20240;-52
2022/06/15 14:37:43;;;;;;;8.70;4.55;;;;;;;;;;5066847;28;20173;-52
2022/06/15 14:40:24;;;;;;;4.28;3.85;;;;;;;;;;5067039;28;20172;-53
2022/06/15 14:42:55;;;;;;;7.50;4.17;;;;;;;;;;5051745;28;20294;-52
2022/06/15 14:45:23;;;;;;;5.60;3.95;;;;;;;;;;5064019;28;20184;-52
2022/06/15 14:47:50;;;;;;;4.32;3.92;;;;;;;;;;5066444;28;20246;-53
2022/06/15 14:50:17;;;;;;;4.57;3.90;;;;;;;;;;5061620;28;20246;-52
2022/06/15 14:52:43;;;;;;;5.57;3.90;;;;;;;;;;5071873;28;20256;-53
2022/06/15 14:55:20;;;;;;;9.07;3.78;;;;;;;;;;5057105;28;20187;-52
2022/06/15 14:57:47;;;;;;;6.93;4.30;;;;;;;;;;5086586;28;20192;-53
2022/06/15 15:00:23;;;;;;;3.63;3.17;;;;;;;;;;5066828;28;20195;-52
2022/06/15 15:02:51;;;;;;;4.97;4.03;;;;;;;;;;5052030;28;20188;-52
2022/06/15 15:05:19;;;;;;;5.20;4.73;;;;;;;;;;5088866;28;20284;-53
2022/06/15 15:10:47;;;;;;;5.53;4.07;;;;;;;;;;5085872;28;20746;-52
2022/06/15 15:13:19;;;;;;;6.55;3.67;;;;;;;;;;5068352;28;20183;-53
2022/06/15 15:15:57;;;;;;;4.47;3.80;;;;;;;;;;5066832;28;20175;-52
2022/06/15 15:18:29;;;;;;;6.33;3.77;;;;;;;;;;5065610;28;20164;-53
2022/06/15 15:20:56;;;;;;;5.23;3.73;;;;;;;;;;5087417;28;20261;-53
2022/06/15 15:23:37;;;;;;;5.50;3.17;;;;;;;;;;5066880;28;20176;-53
2022/06/15 15:26:04;;;;;;;3.93;3.53;;;;;;;;;;5084161;28;20277;-53
2022/06/15 15:34:08;;;;;;;4.63;3.73;;;;;;;;;;5084263;28;20795;-52